Time;durP1;ratioP1;P1;durP2;ratioP2;P2;SDS_P1;SDS_P2;PMS_P1;PMS_P2;Temp;Humidity;BMP_temperature;BMP_pressure;BME280_temperature;BME280_humidity;BME280_pressure;Samples;Min_cycle;Max_cycle;Signal;HPM_P1;HPM_P2
2022/09/18 00:02:35;;;;;;;4.73;1.30;;;;;;;;;;8325852;28;20040;-58
2022/09/18 00:06:37;;;;;;;4.03;1.10;;;;;;;;;;8329922;28;20266;-58
2022/09/18 00:10:41;;;;;;;7.15;1.38;;;;;;;;;;8325476;28;20020;-58
2022/09/18 00:14:41;;;;;;;2.83;0.85;;;;;;;;;;8326228;28;20136;-58
2022/09/18 00:18:41;;;;;;;4.20;0.90;;;;;;;;;;8325022;28;20064;-60
2022/09/18 00:22:42;;;;;;;4.87;1.03;;;;;;;;;;8325073;28;20445;-60
2022/09/18 00:26:42;;;;;;;3.08;1.08;;;;;;;;;;8322920;28;21041;-58
2022/09/18 00:30:42;;;;;;;4.10;1.33;;;;;;;;;;8323678;28;20049;-58
2022/09/18 00:34:42;;;;;;;4.75;1.02;;;;;;;;;;8327614;28;20028;-57
2022/09/18 00:38:43;;;;;;;2.88;0.90;;;;;;;;;;8324591;28;20017;-60
2022/09/18 00:42:43;;;;;;;1.73;1.02;;;;;;;;;;8324881;28;20037;-58
2022/09/18 00:46:44;;;;;;;2.90;1.30;;;;;;;;;;8322893;28;20047;-59
2022/09/18 00:50:44;;;;;;;3.50;1.30;;;;;;;;;;8322872;28;20021;-59
2022/09/18 00:54:50;;;;;;;3.65;1.15;;;;;;;;;;8324314;28;20106;-58
2022/09/18 00:58:50;;;;;;;3.03;0.80;;;;;;;;;;8324074;28;20532;-58
2022/09/18 01:02:50;;;;;;;3.83;0.90;;;;;;;;;;8320495;28;20397;-57
2022/09/18 01:06:56;;;;;;;3.57;0.90;;;;;;;;;;8323259;28;20033;-58
2022/09/18 01:10:56;;;;;;;3.72;0.98;;;;;;;;;;8324355;28;20352;-58
2022/09/18 01:14:56;;;;;;;2.20;0.77;;;;;;;;;;8322123;28;20679;-58
2022/09/18 01:19:02;;;;;;;1.85;0.90;;;;;;;;;;8320900;28;20100;-58
2022/09/18 01:23:21;;;;;;;1.75;0.80;;;;;;;;;;8320118;28;20032;-58
2022/09/18 01:27:39;;;;;;;2.45;0.70;;;;;;;;;;8322564;28;20040;-58
2022/09/18 01:31:45;;;;;;;3.92;1.23;;;;;;;;;;8338225;28;20120;-58
2022/09/18 01:35:48;;;;;;;2.20;0.90;;;;;;;;;;8323352;28;20058;-57
2022/09/18 01:39:54;;;;;;;1.63;0.73;;;;;;;;;;8321069;28;20103;-58
2022/09/18 01:43:58;;;;;;;1.38;0.80;;;;;;;;;;8320977;28;20029;-57
2022/09/18 01:48:00;;;;;;;2.58;0.98;;;;;;;;;;8323532;28;20091;-57
2022/09/18 01:52:30;;;;;;;3.45;0.80;;;;;;;;;;8323281;28;20032;-58
2022/09/18 01:56:32;;;;;;;2.20;1.08;;;;;;;;;;8316054;28;20036;-57
2022/09/18 02:00:34;;;;;;;1.35;0.70;;;;;;;;;;8321402;28;20581;-58
2022/09/18 02:04:37;;;;;;;2.35;0.70;;;;;;;;;;8319515;28;20032;-57
2022/09/18 02:08:41;;;;;;;2.00;0.80;;;;;;;;;;8321266;28;20028;-58
2022/09/18 02:12:42;;;;;;;2.10;0.80;;;;;;;;;;8322624;28;20745;-57
2022/09/18 02:16:47;;;;;;;3.00;0.85;;;;;;;;;;8322329;28;20082;-58
2022/09/18 02:20:47;;;;;;;2.45;0.90;;;;;;;;;;8321939;28;20030;-57
2022/09/18 02:24:49;;;;;;;3.78;0.82;;;;;;;;;;8323868;28;20036;-58
2022/09/18 02:28:49;;;;;;;2.55;0.80;;;;;;;;;;8322818;28;20068;-59
2022/09/18 02:32:53;;;;;;;4.40;0.90;;;;;;;;;;8320166;28;20040;-58
2022/09/18 02:36:54;;;;;;;;;;;;;;;;;;8322021;28;20147;-58
2022/09/18 02:40:54;;;;;;;2.20;0.75;;;;;;;;;;8323405;28;20014;-57
2022/09/18 02:45:09;;;;;;;2.90;0.82;;;;;;;;;;8323280;28;20032;-58
2022/09/18 02:49:10;;;;;;;2.05;0.60;;;;;;;;;;8326330;28;20160;-57
2022/09/18 02:53:31;;;;;;;2.47;0.80;;;;;;;;;;8322476;28;20049;-57
2022/09/18 02:57:34;;;;;;;0.65;0.60;;;;;;;;;;8321811;28;20276;-57
2022/09/18 03:01:35;;;;;;;2.30;0.65;;;;;;;;;;8326581;28;20040;-58
2022/09/18 03:05:35;;;;;;;3.22;0.60;;;;;;;;;;8330102;28;20039;-58
2022/09/18 03:09:36;;;;;;;1.50;0.60;;;;;;;;;;8327974;28;20032;-59
2022/09/18 03:13:36;;;;;;;0.60;0.52;;;;;;;;;;8328095;28;20063;-58
2022/09/18 03:17:36;;;;;;;1.47;0.87;;;;;;;;;;8325211;28;20123;-57
2022/09/18 03:21:37;;;;;;;2.10;0.60;;;;;;;;;;8327574;28;20029;-57
2022/09/18 03:25:37;;;;;;;2.88;0.93;;;;;;;;;;8331178;28;20667;-58
2022/09/18 03:29:37;;;;;;;0.68;0.68;;;;;;;;;;8329914;28;20060;-58
2022/09/18 03:33:37;;;;;;;2.53;0.70;;;;;;;;;;8326662;28;20133;-58
2022/09/18 03:37:38;;;;;;;2.35;0.70;;;;;;;;;;8328966;28;20074;-58
2022/09/18 03:41:38;;;;;;;0.85;0.65;;;;;;;;;;8332496;28;20480;-60
2022/09/18 03:45:38;;;;;;;2.80;0.63;;;;;;;;;;8333275;28;20032;-58
2022/09/18 03:49:38;;;;;;;3.25;0.70;;;;;;;;;;8326934;28;20836;-58
2022/09/18 03:53:38;;;;;;;1.65;0.82;;;;;;;;;;8325653;28;20093;-57
2022/09/18 03:57:39;;;;;;;1.80;0.80;;;;;;;;;;8327081;28;20029;-58
2022/09/18 04:01:39;;;;;;;2.17;0.70;;;;;;;;;;8328177;28;20033;-58
2022/09/18 04:05:39;;;;;;;2.43;0.63;;;;;;;;;;8326264;28;20040;-63
2022/09/18 04:09:39;;;;;;;2.40;0.60;;;;;;;;;;8327183;28;20311;-57
2022/09/18 04:13:40;;;;;;;0.73;0.60;;;;;;;;;;8326761;28;20286;-57
2022/09/18 04:17:40;;;;;;;2.42;0.73;;;;;;;;;;8326064;28;20148;-57
2022/09/18 04:21:40;;;;;;;1.48;0.77;;;;;;;;;;8326493;28;20025;-57
2022/09/18 04:25:41;;;;;;;3.23;0.60;;;;;;;;;;8329032;28;20096;-58
2022/09/18 04:29:42;;;;;;;1.95;0.85;;;;;;;;;;8328241;28;20036;-57
2022/09/18 04:33:42;;;;;;;2.57;0.63;;;;;;;;;;8275163;28;20607;-57
2022/09/18 04:37:42;;;;;;;2.55;0.60;;;;;;;;;;8275143;28;20268;-57
2022/09/18 04:41:44;;;;;;;1.52;0.65;;;;;;;;;;8276076;28;20068;-58
2022/09/18 04:45:45;;;;;;;0.65;0.57;;;;;;;;;;8283788;28;20091;-57
2022/09/18 04:49:45;;;;;;;2.08;0.63;;;;;;;;;;8327851;28;20028;-59
2022/09/18 04:53:45;;;;;;;1.75;0.60;;;;;;;;;;8326170;28;20112;-57
2022/09/18 04:57:45;;;;;;;1.52;0.60;;;;;;;;;;8325608;28;20016;-58
2022/09/18 05:01:45;;;;;;;0.73;0.50;;;;;;;;;;8326191;28;20074;-59
2022/09/18 05:05:47;;;;;;;0.80;0.60;;;;;;;;;;8326658;28;20036;-60
2022/09/18 05:09:47;;;;;;;1.70;0.57;;;;;;;;;;8326988;28;20033;-58
2022/09/18 05:13:47;;;;;;;0.52;0.40;;;;;;;;;;8324085;28;20017;-57
2022/09/18 05:17:47;;;;;;;1.30;0.47;;;;;;;;;;8323699;28;20039;-57
2022/09/18 05:21:51;;;;;;;1.30;0.70;;;;;;;;;;8325137;28;20017;-57
2022/09/18 05:25:51;;;;;;;1.90;0.67;;;;;;;;;;8322831;28;20033;-64
2022/09/18 05:29:51;;;;;;;2.83;0.60;;;;;;;;;;8326027;28;20025;-57
2022/09/18 05:33:51;;;;;;;0.95;0.50;;;;;;;;;;8323892;28;20144;-57
2022/09/18 05:37:52;;;;;;;0.45;0.40;;;;;;;;;;8323240;28;20025;-58
2022/09/18 05:41:52;;;;;;;1.20;0.60;;;;;;;;;;8323266;28;20025;-57
2022/09/18 05:45:52;;;;;;;0.60;0.40;;;;;;;;;;8325992;28;20033;-58
2022/09/18 05:49:52;;;;;;;1.23;0.50;;;;;;;;;;8324225;28;20008;-58
2022/09/18 05:53:52;;;;;;;0.77;0.75;;;;;;;;;;8326097;28;20669;-58
2022/09/18 05:57:53;;;;;;;1.17;0.70;;;;;;;;;;8321519;28;20038;-57
2022/09/18 06:01:54;;;;;;;0.70;0.60;;;;;;;;;;8320537;28;20036;-57
2022/09/18 06:05:54;;;;;;;1.02;0.60;;;;;;;;;;8325278;28;20021;-57
2022/09/18 06:09:54;;;;;;;1.10;1.00;;;;;;;;;;8321080;28;20017;-58
2022/09/18 06:13:54;;;;;;;2.63;0.68;;;;;;;;;;8321111;28;20287;-57
2022/09/18 06:17:55;;;;;;;0.60;0.60;;;;;;;;;;8320693;28;20829;-57
2022/09/18 06:21:55;;;;;;;1.75;0.70;;;;;;;;;;8323394;28;20100;-59
2022/09/18 06:25:56;;;;;;;5.15;0.70;;;;;;;;;;8324820;28;20032;-58
2022/09/18 06:29:56;;;;;;;1.40;0.80;;;;;;;;;;8323711;28;20025;-57
2022/09/18 06:33:57;;;;;;;1.90;0.67;;;;;;;;;;8325629;28;20044;-57
2022/09/18 06:38:04;;;;;;;1.98;0.73;;;;;;;;;;8336288;28;20287;-57
2022/09/18 06:42:04;;;;;;;3.13;1.05;;;;;;;;;;8335244;28;20489;-58
2022/09/18 06:46:06;;;;;;;2.20;0.83;;;;;;;;;;8335480;28;20033;-57
2022/09/18 06:50:07;;;;;;;1.08;0.80;;;;;;;;;;8331927;28;20470;-58
2022/09/18 06:54:07;;;;;;;2.83;1.58;;;;;;;;;;8337352;28;20021;-58
2022/09/18 06:58:08;;;;;;;1.75;1.10;;;;;;;;;;8334263;28;20025;-58
2022/09/18 07:02:12;;;;;;;1.58;0.80;;;;;;;;;;8327573;28;20155;-58
2022/09/18 07:06:12;;;;;;;1.75;1.02;;;;;;;;;;8330359;28;20062;-58
2022/09/18 07:10:13;;;;;;;1.30;0.98;;;;;;;;;;8330807;28;20321;-58
2022/09/18 07:14:13;;;;;;;0.80;0.80;;;;;;;;;;8333282;28;20024;-57
2022/09/18 07:18:13;;;;;;;1.27;0.60;;;;;;;;;;8330805;28;20801;-58
2022/09/18 07:22:13;;;;;;;1.83;0.80;;;;;;;;;;8331529;28;20073;-58
2022/09/18 07:26:13;;;;;;;2.88;1.00;;;;;;;;;;8330565;28;20037;-60
2022/09/18 07:30:14;;;;;;;3.40;1.10;;;;;;;;;;8325726;28;20135;-58
2022/09/18 07:34:14;;;;;;;0.70;0.70;;;;;;;;;;8335302;28;20913;-58
2022/09/18 07:38:14;;;;;;;2.35;0.93;;;;;;;;;;8327374;28;20135;-58
2022/09/18 07:42:14;;;;;;;3.03;0.75;;;;;;;;;;8330890;28;20021;-60
2022/09/18 07:46:15;;;;;;;1.63;0.82;;;;;;;;;;8327757;28;20061;-58
2022/09/18 07:50:15;;;;;;;1.70;0.93;;;;;;;;;;8328367;28;20020;-60
2022/09/18 07:54:15;;;;;;;2.03;1.05;;;;;;;;;;8324191;28;20621;-59
2022/09/18 07:58:16;;;;;;;4.30;1.20;;;;;;;;;;8327878;28;20389;-58
2022/09/18 08:02:16;;;;;;;1.58;1.05;;;;;;;;;;8324033;28;20024;-59
2022/09/18 08:06:16;;;;;;;3.35;1.00;;;;;;;;;;8312672;28;20077;-58
2022/09/18 08:10:16;;;;;;;1.55;1.00;;;;;;;;;;8324126;28;20104;-58
2022/09/18 08:14:16;;;;;;;1.30;0.90;;;;;;;;;;8322867;28;20028;-59
2022/09/18 08:18:19;;;;;;;3.10;1.00;;;;;;;;;;8323890;28;20059;-59
2022/09/18 08:22:19;;;;;;;5.07;0.98;;;;;;;;;;8311379;28;20082;-59
2022/09/18 08:26:19;;;;;;;5.23;1.50;;;;;;;;;;8326255;28;20025;-59
2022/09/18 08:30:20;;;;;;;5.97;1.60;;;;;;;;;;8322135;28;20255;-60
2022/09/18 08:34:20;;;;;;;3.70;1.30;;;;;;;;;;8321102;28;20291;-59
2022/09/18 08:38:20;;;;;;;3.70;1.00;;;;;;;;;;8323990;28;20508;-57
2022/09/18 08:42:31;;;;;;;5.22;2.03;;;;;;;;;;8324349;28;20493;-57
2022/09/18 08:46:34;;;;;;;5.40;1.13;;;;;;;;;;8321132;28;20075;-57
2022/09/18 08:50:37;;;;;;;3.60;1.20;;;;;;;;;;8315114;28;20029;-56
2022/09/18 08:54:43;;;;;;;6.10;1.40;;;;;;;;;;8316238;28;20030;-57
2022/09/18 08:58:50;;;;;;;3.50;1.15;;;;;;;;;;8316842;28;20020;-58
2022/09/18 09:03:01;;;;;;;3.65;0.80;;;;;;;;;;8315414;28;20540;-58
2022/09/18 09:07:20;;;;;;;5.20;1.13;;;;;;;;;;8317064;28;20572;-57
2022/09/18 09:11:40;;;;;;;4.18;1.30;;;;;;;;;;8315527;28;20024;-57
2022/09/18 09:15:48;;;;;;;4.15;1.20;;;;;;;;;;8314854;28;20092;-56
2022/09/18 09:19:52;;;;;;;3.45;0.80;;;;;;;;;;8317657;28;20022;-58
2022/09/18 09:24:05;;;;;;;5.32;1.38;;;;;;;;;;8315950;28;20555;-57
2022/09/18 09:28:17;;;;;;;2.53;0.88;;;;;;;;;;8315749;28;20033;-56
2022/09/18 09:32:30;;;;;;;4.97;1.20;;;;;;;;;;8314504;28;20197;-57
2022/09/18 09:41:27;;;;;;;5.03;1.30;;;;;;;;;;8334438;28;20061;-58
2022/09/18 09:45:45;;;;;;;4.40;1.15;;;;;;;;;;8321018;28;20071;-57
2022/09/18 09:49:45;;;;;;;1.50;1.05;;;;;;;;;;8320688;28;20035;-57
2022/09/18 09:53:45;;;;;;;2.33;0.90;;;;;;;;;;8323623;28;20943;-58
2022/09/18 09:57:50;;;;;;;3.17;1.10;;;;;;;;;;8322458;28;20029;-56
2022/09/18 10:01:53;;;;;;;2.15;1.02;;;;;;;;;;8321128;28;20819;-58
2022/09/18 10:05:59;;;;;;;1.57;0.90;;;;;;;;;;8321520;28;20037;-57
2022/09/18 10:10:05;;;;;;;3.15;1.20;;;;;;;;;;8318627;28;20383;-59
2022/09/18 10:14:09;;;;;;;4.28;1.00;;;;;;;;;;8315389;28;20135;-59
2022/09/18 10:18:13;;;;;;;3.35;1.00;;;;;;;;;;8314610;28;20148;-56
2022/09/18 10:22:18;;;;;;;5.05;1.38;;;;;;;;;;8313651;28;20031;-58
2022/09/18 10:26:24;;;;;;;4.07;0.90;;;;;;;;;;8312519;28;20055;-56
2022/09/18 10:30:24;;;;;;;4.57;1.30;;;;;;;;;;8311825;28;20534;-57
2022/09/18 10:34:32;;;;;;;4.05;1.30;;;;;;;;;;8314900;28;20033;-58
2022/09/18 10:38:33;;;;;;;2.40;1.20;;;;;;;;;;8320969;28;20032;-58
2022/09/18 10:42:35;;;;;;;3.38;0.90;;;;;;;;;;8324342;28;20565;-57
2022/09/18 10:46:37;;;;;;;2.70;1.02;;;;;;;;;;8318639;28;20140;-58
2022/09/18 10:50:38;;;;;;;2.95;0.90;;;;;;;;;;8322294;28;20036;-58
2022/09/18 10:54:38;;;;;;;2.03;0.93;;;;;;;;;;8317827;28;20035;-57
2022/09/18 10:58:38;;;;;;;1.40;0.97;;;;;;;;;;8320379;28;20051;-58
2022/09/18 11:02:50;;;;;;;2.80;0.95;;;;;;;;;;8319689;28;20271;-56
2022/09/18 11:06:50;;;;;;;2.95;0.90;;;;;;;;;;8321415;28;20034;-58
2022/09/18 11:10:54;;;;;;;1.87;1.00;;;;;;;;;;8318980;28;20037;-58
2022/09/18 11:14:54;;;;;;;;;;;;;;;;;;8318967;28;20604;-56
2022/09/18 11:19:02;;;;;;;4.75;1.17;;;;;;;;;;8312588;28;19971;-58
2022/09/18 11:23:17;;;;;;;1.23;0.85;;;;;;;;;;8314306;28;20638;-56
2022/09/18 11:27:20;;;;;;;3.78;1.60;;;;;;;;;;8315821;28;20393;-57
2022/09/18 11:31:20;;;;;;;3.08;1.48;;;;;;;;;;8319538;28;20075;-58
2022/09/18 11:35:21;;;;;;;4.05;1.30;;;;;;;;;;8320121;28;20672;-56
2022/09/18 11:39:23;;;;;;;4.32;1.80;;;;;;;;;;8325490;28;20435;-56
2022/09/18 11:43:25;;;;;;;1.63;1.00;;;;;;;;;;8317204;28;20033;-57
2022/09/18 11:47:36;;;;;;;1.33;0.90;;;;;;;;;;8320356;28;20045;-58
2022/09/18 11:51:54;;;;;;;1.92;1.00;;;;;;;;;;8318661;28;20047;-57
2022/09/18 11:55:57;;;;;;;2.03;1.00;;;;;;;;;;8319534;28;20022;-58
2022/09/18 12:00:01;;;;;;;1.90;0.90;;;;;;;;;;8321422;28;20533;-57
2022/09/18 12:04:01;;;;;;;;;;;;;;;;;;8319238;28;20044;-58
2022/09/18 12:08:01;;;;;;;2.80;1.00;;;;;;;;;;8316790;28;19921;-56
2022/09/18 12:12:11;;;;;;;1.67;1.00;;;;;;;;;;8319572;28;20411;-56
2022/09/18 12:16:25;;;;;;;2.97;1.00;;;;;;;;;;8315674;28;20037;-56
2022/09/18 12:20:31;;;;;;;2.60;1.00;;;;;;;;;;8317582;28;20670;-58
2022/09/18 12:24:31;;;;;;;1.73;1.10;;;;;;;;;;8320328;28;20298;-57
2022/09/18 12:28:52;;;;;;;5.30;1.23;;;;;;;;;;8321256;28;20601;-57
2022/09/18 12:33:11;;;;;;;2.42;0.95;;;;;;;;;;8317793;28;20596;-58
2022/09/18 12:37:19;;;;;;;4.93;1.15;;;;;;;;;;8316565;28;20033;-56
2022/09/18 12:41:19;;;;;;;3.20;1.10;;;;;;;;;;8317406;28;20398;-58
2022/09/18 12:45:38;;;;;;;2.87;0.90;;;;;;;;;;8318302;28;20029;-56
2022/09/18 12:49:41;;;;;;;5.22;1.10;;;;;;;;;;8316013;28;20025;-58
2022/09/18 12:54:00;;;;;;;2.23;1.27;;;;;;;;;;8316842;28;20049;-58
2022/09/18 12:58:05;;;;;;;2.83;1.15;;;;;;;;;;8319025;28;20013;-56
2022/09/18 13:02:05;;;;;;;3.25;1.17;;;;;;;;;;8318112;28;20744;-58
2022/09/18 13:06:08;;;;;;;3.47;1.15;;;;;;;;;;8317633;28;20534;-57
2022/09/18 13:10:22;;;;;;;1.45;0.80;;;;;;;;;;8315160;28;20543;-56
2022/09/18 13:14:43;;;;;;;1.20;1.00;;;;;;;;;;8317503;28;20128;-56
2022/09/18 13:18:46;;;;;;;2.67;1.20;;;;;;;;;;8319456;28;20353;-56
2022/09/18 13:22:47;;;;;;;2.55;1.27;;;;;;;;;;8314805;28;20566;-58
2022/09/18 13:26:48;;;;;;;3.63;1.17;;;;;;;;;;8316192;28;20033;-57
2022/09/18 13:31:11;;;;;;;3.38;1.35;;;;;;;;;;8315606;28;20120;-58
2022/09/18 13:35:11;;;;;;;3.13;1.17;;;;;;;;;;8307622;28;20124;-57
2022/09/18 13:39:21;;;;;;;2.78;1.40;;;;;;;;;;8314117;28;20017;-58
2022/09/18 13:43:21;;;;;;;2.47;0.98;;;;;;;;;;8315166;28;20029;-56
2022/09/18 13:47:23;;;;;;;2.55;1.10;;;;;;;;;;8316277;28;20044;-56
2022/09/18 13:51:25;;;;;;;1.55;1.00;;;;;;;;;;8317409;28;20029;-56
2022/09/18 13:55:26;;;;;;;2.38;1.08;;;;;;;;;;8316372;28;20151;-57
2022/09/18 13:59:43;;;;;;;2.45;1.10;;;;;;;;;;8314578;28;20549;-56
2022/09/18 14:03:43;;;;;;;2.85;1.08;;;;;;;;;;8317896;28;20039;-56
2022/09/18 14:07:54;;;;;;;3.50;1.02;;;;;;;;;;8317921;28;20577;-58
2022/09/18 14:11:54;;;;;;;4.85;1.30;;;;;;;;;;8316052;28;20442;-57
2022/09/18 14:16:00;;;;;;;3.03;0.90;;;;;;;;;;8315608;28;20040;-56
2022/09/18 14:20:07;;;;;;;3.95;1.20;;;;;;;;;;8315835;28;20029;-58
2022/09/18 14:24:22;;;;;;;4.93;1.50;;;;;;;;;;8316038;28;20062;-57
2022/09/18 14:28:22;;;;;;;3.30;0.90;;;;;;;;;;8315768;28;20027;-56
2022/09/18 14:32:24;;;;;;;5.20;1.30;;;;;;;;;;8313833;28;20041;-56
2022/09/18 14:36:24;;;;;;;3.25;1.05;;;;;;;;;;8317630;28;20029;-56
2022/09/18 14:40:26;;;;;;;4.38;1.40;;;;;;;;;;8318247;28;20036;-57
2022/09/18 14:44:31;;;;;;;4.00;1.45;;;;;;;;;;8315280;28;20044;-58
2022/09/18 14:48:36;;;;;;;5.90;1.00;;;;;;;;;;8317599;28;20406;-56
2022/09/18 14:52:42;;;;;;;1.15;0.80;;;;;;;;;;8311722;28;20180;-58
2022/09/18 14:56:42;;;;;;;1.90;0.70;;;;;;;;;;8317541;28;20401;-58
2022/09/18 15:00:44;;;;;;;2.88;0.90;;;;;;;;;;8319986;28;20155;-58
2022/09/18 15:04:44;;;;;;;3.45;1.00;;;;;;;;;;8324743;28;20032;-57
2022/09/18 15:08:46;;;;;;;2.85;1.02;;;;;;;;;;8318786;28;20393;-56
2022/09/18 15:12:46;;;;;;;1.95;1.13;;;;;;;;;;8318584;28;20116;-56
2022/09/18 15:16:54;;;;;;;1.93;1.00;;;;;;;;;;8317182;28;20123;-58
2022/09/18 15:20:55;;;;;;;3.35;1.10;;;;;;;;;;8320164;28;20068;-56
2022/09/18 15:24:59;;;;;;;4.28;1.13;;;;;;;;;;8317186;28;20029;-56
2022/09/18 15:28:59;;;;;;;;;;;;;;;;;;8318773;28;21562;-56
2022/09/18 15:33:02;;;;;;;2.47;0.85;;;;;;;;;;8318112;28;20420;-56
2022/09/18 15:37:03;;;;;;;1.48;0.98;;;;;;;;;;8314124;28;20021;-56
2022/09/18 15:41:19;;;;;;;2.95;0.70;;;;;;;;;;8317321;28;20666;-56
2022/09/18 15:45:20;;;;;;;2.80;1.10;;;;;;;;;;8315111;28;20500;-56
2022/09/18 15:49:28;;;;;;;1.98;0.95;;;;;;;;;;8317908;28;20217;-56
2022/09/18 15:53:28;;;;;;;3.20;0.90;;;;;;;;;;8317444;28;20037;-56
2022/09/18 15:57:29;;;;;;;2.20;0.95;;;;;;;;;;8315843;28;20032;-56
2022/09/18 16:01:33;;;;;;;2.38;0.90;;;;;;;;;;8317599;28;20524;-56
2022/09/18 16:05:36;;;;;;;1.20;0.80;;;;;;;;;;8316308;28;20104;-55
2022/09/18 16:09:36;;;;;;;1.55;0.82;;;;;;;;;;8315838;28;20063;-55
2022/09/18 16:13:39;;;;;;;1.90;0.80;;;;;;;;;;8314834;28;20552;-55
2022/09/18 16:17:42;;;;;;;1.23;0.73;;;;;;;;;;8313749;28;20041;-55
2022/09/18 16:21:43;;;;;;;3.30;0.70;;;;;;;;;;8319297;28;20028;-56
2022/09/18 16:25:44;;;;;;;1.85;0.90;;;;;;;;;;8317021;28;20024;-56
2022/09/18 16:29:45;;;;;;;4.88;0.98;;;;;;;;;;8312846;28;20429;-56
2022/09/18 16:33:56;;;;;;;1.10;0.85;;;;;;;;;;8311314;28;20042;-56
2022/09/18 16:37:56;;;;;;;1.75;1.20;;;;;;;;;;8313186;28;20021;-56
2022/09/18 16:41:56;;;;;;;1.65;0.90;;;;;;;;;;8315992;28;20618;-56
2022/09/18 16:45:57;;;;;;;2.53;0.93;;;;;;;;;;8313878;28;20475;-56
2022/09/18 16:49:57;;;;;;;2.17;0.75;;;;;;;;;;8314750;28;20045;-55
2022/09/18 16:53:57;;;;;;;1.38;0.80;;;;;;;;;;8314126;28;20041;-55
2022/09/18 16:57:58;;;;;;;2.00;0.95;;;;;;;;;;8316454;28;20769;-56
2022/09/18 17:01:58;;;;;;;2.08;1.00;;;;;;;;;;8310912;28;20031;-56
2022/09/18 17:06:00;;;;;;;2.20;1.00;;;;;;;;;;8314035;28;20029;-55
2022/09/18 17:10:01;;;;;;;2.55;1.10;;;;;;;;;;8314762;28;20017;-55
2022/09/18 17:14:02;;;;;;;2.25;1.00;;;;;;;;;;8315157;28;20025;-55
2022/09/18 17:18:02;;;;;;;5.03;1.20;;;;;;;;;;8315190;28;20505;-55
2022/09/18 17:22:02;;;;;;;1.83;0.88;;;;;;;;;;8310845;28;20017;-56
2022/09/18 17:26:03;;;;;;;2.47;1.00;;;;;;;;;;8311743;28;20035;-55
2022/09/18 17:30:04;;;;;;;2.92;1.00;;;;;;;;;;8311899;28;20025;-55
2022/09/18 17:34:04;;;;;;;4.85;1.02;;;;;;;;;;8314793;28;20162;-55
2022/09/18 17:38:04;;;;;;;1.42;0.80;;;;;;;;;;8312406;28;20024;-55
2022/09/18 17:42:05;;;;;;;4.18;1.10;;;;;;;;;;8314090;28;20430;-55
2022/09/18 17:46:07;;;;;;;2.37;1.20;;;;;;;;;;8309529;28;20116;-56
2022/09/18 17:50:07;;;;;;;1.15;1.00;;;;;;;;;;8311057;28;20275;-55
2022/09/18 17:54:09;;;;;;;2.13;0.90;;;;;;;;;;8310850;28;20544;-56
2022/09/18 17:58:09;;;;;;;2.13;1.08;;;;;;;;;;8310472;28;20547;-55
2022/09/18 18:02:10;;;;;;;2.55;1.20;;;;;;;;;;8311378;28;20025;-56
2022/09/18 18:06:11;;;;;;;4.70;1.98;;;;;;;;;;8313153;28;20111;-55
2022/09/18 18:10:11;;;;;;;2.47;1.20;;;;;;;;;;8308616;28;20056;-55
2022/09/18 18:14:12;;;;;;;2.10;1.20;;;;;;;;;;8310798;28;20033;-59
2022/09/18 18:18:13;;;;;;;1.25;0.90;;;;;;;;;;8318838;28;20274;-55
2022/09/18 18:22:13;;;;;;;3.60;0.80;;;;;;;;;;8314825;28;20635;-55
2022/09/18 18:26:13;;;;;;;1.73;1.02;;;;;;;;;;8310313;28;20038;-55
2022/09/18 18:30:15;;;;;;;1.97;1.10;;;;;;;;;;8310283;28;20468;-55
2022/09/18 18:34:21;;;;;;;1.20;1.10;;;;;;;;;;8312753;28;20017;-55
2022/09/18 18:38:21;;;;;;;2.35;1.10;;;;;;;;;;8309436;28;20545;-56
2022/09/18 18:42:21;;;;;;;1.27;1.17;;;;;;;;;;8308591;28;20131;-56
2022/09/18 18:46:23;;;;;;;2.27;1.47;;;;;;;;;;8318544;28;20037;-56
2022/09/18 18:50:23;;;;;;;3.60;1.83;;;;;;;;;;8306870;28;20272;-56
2022/09/18 18:54:23;;;;;;;4.38;1.50;;;;;;;;;;8309085;28;20600;-55
2022/09/18 18:58:25;;;;;;;4.15;1.15;;;;;;;;;;8307235;28;20017;-56
2022/09/18 19:02:25;;;;;;;1.88;1.33;;;;;;;;;;8310990;28;20041;-55
2022/09/18 19:06:26;;;;;;;1.20;1.10;;;;;;;;;;8312881;28;20028;-55
2022/09/18 19:10:26;;;;;;;4.85;1.20;;;;;;;;;;8310131;28;20202;-55
2022/09/18 19:14:29;;;;;;;2.25;1.40;;;;;;;;;;8309984;28;20489;-55
2022/09/18 19:18:30;;;;;;;2.80;1.30;;;;;;;;;;8309611;28;20037;-56
2022/09/18 19:22:30;;;;;;;4.50;1.67;;;;;;;;;;8311165;28;20131;-56
2022/09/18 19:26:30;;;;;;;2.85;1.40;;;;;;;;;;8311246;28;20533;-55
2022/09/18 19:30:34;;;;;;;3.38;1.40;;;;;;;;;;8307215;28;20041;-56
2022/09/18 19:34:34;;;;;;;;;;;;;;;;;;8307567;28;20491;-55
2022/09/18 19:38:37;;;;;;;2.22;1.10;;;;;;;;;;8309208;28;19955;-55
2022/09/18 19:42:38;;;;;;;1.20;1.10;;;;;;;;;;8313506;28;20241;-57
2022/09/18 19:46:39;;;;;;;1.48;1.20;;;;;;;;;;8317478;28;20043;-56
2022/09/18 19:50:39;;;;;;;2.53;0.90;;;;;;;;;;8318586;28;20477;-56
2022/09/18 19:54:39;;;;;;;1.45;1.10;;;;;;;;;;8315303;28;20025;-55
2022/09/18 19:58:41;;;;;;;1.23;1.00;;;;;;;;;;8318857;28;20050;-55
2022/09/18 20:02:41;;;;;;;2.78;0.90;;;;;;;;;;8316853;28;20029;-56
2022/09/18 20:06:41;;;;;;;1.23;1.00;;;;;;;;;;8318596;28;20021;-56
2022/09/18 20:10:41;;;;;;;2.50;1.23;;;;;;;;;;8314871;28;20395;-56
2022/09/18 20:14:42;;;;;;;2.65;0.85;;;;;;;;;;8317641;28;20050;-55
2022/09/18 20:18:42;;;;;;;2.25;1.05;;;;;;;;;;8316785;28;20513;-55
2022/09/18 20:22:42;;;;;;;5.00;1.10;;;;;;;;;;8317844;28;20043;-55
2022/09/18 20:26:43;;;;;;;1.15;1.00;;;;;;;;;;8320369;28;20020;-55
2022/09/18 20:30:43;;;;;;;1.30;1.00;;;;;;;;;;8317545;28;20595;-55
2022/09/18 20:34:43;;;;;;;3.10;1.60;;;;;;;;;;8319672;28;20036;-55
2022/09/18 20:38:44;;;;;;;2.83;1.35;;;;;;;;;;8318297;28;20032;-55
2022/09/18 20:42:47;;;;;;;5.32;0.80;;;;;;;;;;8317725;28;20065;-58
2022/09/18 20:46:48;;;;;;;1.42;0.55;;;;;;;;;;8317128;28;20352;-56
2022/09/18 20:50:49;;;;;;;0.40;0.40;;;;;;;;;;8317230;28;20236;-56
2022/09/18 20:54:50;;;;;;;2.08;0.60;;;;;;;;;;8315754;28;20605;-56
2022/09/18 20:58:50;;;;;;;0.50;0.50;;;;;;;;;;8318807;28;20397;-56
2022/09/18 21:02:52;;;;;;;1.00;0.50;;;;;;;;;;8315068;28;20033;-57
2022/09/18 21:06:56;;;;;;;4.95;0.50;;;;;;;;;;8317643;28;20448;-56
2022/09/18 21:11:00;;;;;;;0.75;0.50;;;;;;;;;;8323034;28;20037;-55
2022/09/18 21:15:01;;;;;;;0.30;0.30;;;;;;;;;;8325533;28;20033;-57
2022/09/18 21:19:03;;;;;;;0.55;0.50;;;;;;;;;;8327668;28;20449;-57
2022/09/18 21:27:22;;;;;;;1.33;0.38;;;;;;;;;;8326371;28;20036;-57
2022/09/18 21:31:23;;;;;;;0.40;0.40;;;;;;;;;;8326596;28;20040;-57
2022/09/18 21:35:23;;;;;;;3.42;0.50;;;;;;;;;;8323544;28;20509;-57
2022/09/18 21:39:24;;;;;;;1.10;0.47;;;;;;;;;;8323489;28;20059;-57
2022/09/18 21:43:25;;;;;;;0.50;0.40;;;;;;;;;;8322929;28;20037;-56
2022/09/18 21:47:25;;;;;;;0.40;0.40;;;;;;;;;;8322608;28;20134;-56
2022/09/18 21:51:25;;;;;;;0.45;0.40;;;;;;;;;;8327301;28;20459;-56
2022/09/18 21:55:25;;;;;;;2.28;0.40;;;;;;;;;;8322942;28;20052;-57
2022/09/18 21:59:27;;;;;;;0.40;0.40;;;;;;;;;;8321243;28;20021;-56
2022/09/18 22:03:27;;;;;;;0.50;0.50;;;;;;;;;;8322557;28;21135;-57
2022/09/18 22:07:28;;;;;;;0.52;0.40;;;;;;;;;;8322045;28;20032;-56
2022/09/18 22:11:29;;;;;;;0.52;0.30;;;;;;;;;;8321622;28;20020;-56
2022/09/18 22:15:29;;;;;;;0.70;0.40;;;;;;;;;;8323988;28;20409;-56
2022/09/18 22:19:32;;;;;;;0.57;0.57;;;;;;;;;;8328315;28;20040;-55
2022/09/18 22:23:32;;;;;;;0.80;0.47;;;;;;;;;;8322585;28;20025;-58
2022/09/18 22:27:33;;;;;;;3.03;0.47;;;;;;;;;;8326045;28;20909;-55
2022/09/18 22:31:34;;;;;;;0.30;0.30;;;;;;;;;;8318990;28;20144;-56
2022/09/18 22:35:35;;;;;;;0.88;0.40;;;;;;;;;;8323489;28;20290;-57
2022/09/18 22:39:36;;;;;;;0.75;0.40;;;;;;;;;;8322432;28;20051;-56
2022/09/18 22:43:36;;;;;;;0.73;0.40;;;;;;;;;;8323185;28;20027;-56
2022/09/18 22:47:36;;;;;;;0.40;0.40;;;;;;;;;;8323757;28;20048;-55
2022/09/18 22:51:37;;;;;;;0.30;0.30;;;;;;;;;;8323383;28;20048;-56
2022/09/18 22:55:38;;;;;;;0.40;0.40;;;;;;;;;;8321819;28;20061;-57
2022/09/18 22:59:38;;;;;;;0.40;0.40;;;;;;;;;;8323462;28;20031;-56
2022/09/18 23:03:38;;;;;;;0.40;0.40;;;;;;;;;;8322583;28;20077;-55
2022/09/18 23:07:38;;;;;;;0.50;0.50;;;;;;;;;;8324391;28;20394;-57
2022/09/18 23:11:39;;;;;;;0.52;0.30;;;;;;;;;;8327222;28;20036;-57
2022/09/18 23:15:39;;;;;;;3.97;0.60;;;;;;;;;;8322307;28;20037;-56
2022/09/18 23:19:40;;;;;;;1.95;0.60;;;;;;;;;;8318586;28;20348;-56
2022/09/18 23:23:47;;;;;;;0.45;0.43;;;;;;;;;;8330636;28;20489;-56
2022/09/18 23:27:48;;;;;;;1.10;0.40;;;;;;;;;;8330036;28;20800;-56
2022/09/18 23:31:49;;;;;;;0.95;0.50;;;;;;;;;;8326556;28;20577;-56
2022/09/18 23:35:49;;;;;;;0.55;0.40;;;;;;;;;;8327178;28;20043;-56
2022/09/18 23:39:49;;;;;;;1.33;0.55;;;;;;;;;;8329425;28;20053;-56
2022/09/18 23:43:50;;;;;;;0.47;0.47;;;;;;;;;;8328300;28;20031;-56
2022/09/18 23:47:50;;;;;;;0.90;0.40;;;;;;;;;;8330650;28;20729;-55
2022/09/18 23:51:52;;;;;;;1.30;0.50;;;;;;;;;;8327832;28;20060;-56
2022/09/18 23:55:58;;;;;;;5.85;0.68;;;;;;;;;;8328992;28;20033;-55
2022/09/18 23:59:59;;;;;;;1.20;0.50;;;;;;;;;;8326699;28;20027;-56
